createdAt,value
2023-04-10T00:00:57.614Z,2.12
2023-04-10T00:03:26.520Z,2.05
2023-04-10T00:05:55.248Z,2.02
2023-04-10T00:08:25.587Z,2.02
2023-04-10T00:10:54.857Z,1.98
2023-04-10T00:13:23.447Z,1.95
2023-04-10T00:15:51.844Z,1.93
2023-04-10T00:18:20.623Z,1.88
2023-04-10T00:20:48.882Z,1.87
2023-04-10T00:23:17.357Z,1.86
2023-04-10T00:25:48.006Z,1.82
2023-04-10T00:28:17.637Z,1.78
2023-04-10T00:30:45.972Z,1.77
2023-04-10T00:33:14.502Z,1.75
2023-04-10T00:35:43.151Z,1.74
2023-04-10T00:38:12.776Z,1.69
2023-04-10T00:40:41.764Z,1.67
2023-04-10T00:43:10.227Z,1.62
2023-04-10T00:45:39.633Z,1.60
2023-04-10T00:48:08.419Z,1.54
2023-04-10T00:50:36.697Z,1.49
2023-04-10T00:53:05.385Z,1.45
2023-04-10T00:55:33.967Z,1.42
2023-04-10T00:58:02.757Z,1.39
2023-04-10T01:00:31.388Z,1.39
2023-04-10T01:03:01.813Z,1.40
2023-04-10T01:05:35.981Z,1.38
2023-04-10T01:08:23.102Z,1.35
2023-04-10T01:11:24.638Z,1.33
2023-04-10T01:14:07.576Z,1.32
2023-04-10T01:20:19.513Z,1.26
2023-04-10T01:23:03.018Z,1.17
2023-04-10T01:25:42.223Z,1.19
2023-04-10T01:28:20.518Z,1.15
2023-04-10T01:30:54.298Z,1.12
2023-04-10T01:33:30.136Z,1.11
2023-04-10T01:36:03.370Z,1.08
2023-04-10T01:38:33.289Z,1.01
2023-04-10T01:41:02.719Z,0.92
2023-04-10T01:43:34.189Z,0.86
2023-04-10T01:46:05.161Z,0.79
2023-04-10T01:48:34.115Z,0.78
2023-04-10T01:51:07.186Z,0.78
2023-04-10T01:53:37.016Z,0.77
2023-04-10T01:56:08.644Z,0.77
2023-04-10T01:58:44.171Z,0.77
2023-04-10T02:01:28.472Z,0.77
2023-04-10T02:03:59.950Z,0.76
2023-04-10T02:06:55.642Z,0.75
2023-04-10T02:09:36.418Z,0.71
2023-04-10T02:12:09.716Z,0.69
2023-04-10T02:14:45.270Z,0.65
2023-04-10T02:17:22.357Z,0.65
2023-04-10T02:19:54.913Z,0.66
2023-04-10T02:22:25.908Z,0.63
2023-04-10T02:24:54.945Z,0.57
2023-04-10T02:27:36.088Z,0.55
2023-04-10T02:30:05.635Z,0.52
2023-04-10T02:32:35.656Z,0.51
2023-04-10T02:35:04.496Z,0.48
2023-04-10T02:37:33.436Z,0.42
2023-04-10T02:40:02.629Z,0.41
2023-04-10T02:42:37.931Z,0.42
2023-04-10T02:45:07.580Z,0.42
2023-04-10T02:47:39.766Z,0.44
2023-04-10T02:50:09.454Z,0.44
2023-04-10T02:52:39.572Z,0.42
2023-04-10T02:55:08.631Z,0.38
2023-04-10T02:57:38.588Z,0.37
2023-04-10T03:00:07.992Z,0.35
2023-04-10T03:02:56.332Z,0.33
2023-04-10T03:05:25.265Z,0.31
2023-04-10T03:07:54.638Z,0.29
2023-04-10T03:10:23.520Z,0.26
2023-04-10T03:12:51.989Z,0.22
2023-04-10T03:15:20.897Z,0.19
2023-04-10T03:17:49.574Z,0.17
2023-04-10T03:20:18.366Z,0.17
2023-04-10T03:22:47.052Z,0.15
2023-04-10T03:25:16.751Z,0.10
2023-04-10T03:27:45.242Z,0.03
2023-04-10T03:30:14.342Z,-0.04
2023-04-10T03:32:45.073Z,-0.08
2023-04-10T03:35:13.565Z,-0.13
2023-04-10T03:37:42.747Z,-0.17
2023-04-10T03:40:12.367Z,-0.18
2023-04-10T03:42:41.551Z,-0.20
2023-04-10T03:45:11.389Z,-0.22
2023-04-10T03:47:39.932Z,-0.27
2023-04-10T03:50:10.794Z,-0.27
2023-04-10T03:52:46.543Z,-0.23
2023-04-10T03:55:19.260Z,-0.18
2023-04-10T03:57:49.056Z,-0.16
2023-04-10T04:00:18.728Z,-0.14
2023-04-10T04:02:52.975Z,-0.12
2023-04-10T04:05:47.336Z,-0.08
2023-04-10T04:08:45.105Z,-0.08
2023-04-10T04:11:25.671Z,-0.05
2023-04-10T04:14:01.320Z,0.00
2023-04-10T04:16:56.424Z,0.09
2023-04-10T04:19:57.068Z,0.19
2023-04-10T04:22:39.894Z,0.27
2023-04-10T04:25:30.782Z,0.34
2023-04-10T04:28:02.444Z,0.37
2023-04-10T04:30:36.992Z,0.44
2023-04-10T04:33:25.978Z,0.53
2023-04-10T04:36:07.045Z,0.58
2023-04-10T04:39:05.689Z,0.66
2023-04-10T04:42:02.025Z,0.76
2023-04-10T04:44:56.620Z,0.91
2023-04-10T04:47:59.007Z,1.05
2023-04-10T04:50:51.645Z,1.13
2023-04-10T04:53:40.406Z,1.17
2023-04-10T04:56:28.960Z,1.23
2023-04-10T04:59:19.547Z,1.32
2023-04-10T05:02:20.361Z,1.44
2023-04-10T05:05:20.132Z,1.55
2023-04-10T05:08:00.735Z,1.59
2023-04-10T05:10:42.758Z,1.66
2023-04-10T05:13:23.653Z,1.73
2023-04-10T05:16:10.741Z,1.80
2023-04-10T05:18:57.999Z,1.89
2023-04-10T05:21:45.589Z,1.97
2023-04-10T05:24:34.754Z,2.06
2023-04-10T05:27:22.401Z,2.20
2023-04-10T05:30:09.518Z,2.33
2023-04-10T05:32:48.769Z,2.45
2023-04-10T05:35:40.718Z,2.58
2023-04-10T05:38:27.597Z,2.67
2023-04-10T05:41:14.082Z,2.75
2023-04-10T05:44:01.617Z,2.88
2023-04-10T05:46:47.999Z,2.96
2023-04-10T05:49:36.471Z,3.05
2023-04-10T05:52:25.671Z,3.16
2023-04-10T05:55:12.541Z,3.28
2023-04-10T05:57:44.136Z,3.36
2023-04-10T06:00:48.240Z,3.49
2023-04-10T06:03:43.724Z,3.60
2023-04-10T06:06:12.827Z,3.69
2023-04-10T06:08:42.022Z,3.78
2023-04-10T06:11:10.910Z,3.90
2023-04-10T06:13:41.643Z,4.04
2023-04-10T06:16:10.930Z,4.13
2023-04-10T06:18:39.741Z,4.18
2023-04-10T06:21:08.755Z,4.26
2023-04-10T06:23:37.617Z,4.38
2023-04-10T06:26:06.997Z,4.53
2023-04-10T06:28:35.801Z,4.65
2023-04-10T06:31:07.823Z,4.73
2023-04-10T06:33:38.002Z,4.86
2023-04-10T06:36:10.832Z,4.98
2023-04-10T06:38:44.797Z,5.08
2023-04-10T06:41:13.685Z,5.17
2023-04-10T06:43:42.163Z,5.31
2023-04-10T06:46:10.849Z,5.44
2023-04-10T06:48:39.325Z,5.49
2023-04-10T06:51:08.217Z,5.61
2023-04-10T06:53:37.080Z,5.74
2023-04-10T06:56:07.317Z,5.86
2023-04-10T06:58:36.129Z,5.93
2023-04-10T07:01:05.148Z,5.95
2023-04-10T07:03:34.183Z,6.02
2023-04-10T07:06:03.599Z,6.15
2023-04-10T07:08:32.294Z,6.22
2023-04-10T07:11:01.257Z,6.34
2023-04-10T07:13:30.269Z,6.45
2023-04-10T07:15:59.090Z,6.42
2023-04-10T07:18:27.763Z,6.49
2023-04-10T07:20:56.645Z,6.56
2023-04-10T07:23:25.167Z,6.69
2023-04-10T07:25:53.922Z,6.78
2023-04-10T07:28:22.804Z,6.87
2023-04-10T07:30:52.102Z,6.90
2023-04-10T07:33:22.772Z,6.95
2023-04-10T07:35:52.163Z,7.01
2023-04-10T07:38:21.434Z,7.14
2023-04-10T07:40:52.985Z,7.22
2023-04-10T07:43:21.594Z,7.25
2023-04-10T07:49:32.058Z,7.58
2023-04-10T07:52:01.082Z,7.71
2023-04-10T07:54:34.230Z,7.87
2023-04-10T07:57:02.936Z,7.95
2023-04-10T07:59:32.141Z,8.10
2023-04-10T08:02:00.929Z,8.19
2023-04-10T08:04:30.032Z,8.32
2023-04-10T08:06:58.925Z,8.41
2023-04-10T08:09:47.750Z,8.48
2023-04-10T08:12:17.482Z,8.62
2023-04-10T08:14:46.896Z,8.78
2023-04-10T08:17:15.655Z,8.81
2023-04-10T08:19:44.161Z,8.99
2023-04-10T08:22:12.817Z,9.07
2023-04-10T08:24:41.304Z,9.19
2023-04-10T08:27:11.313Z,9.29
2023-04-10T08:29:40.465Z,9.36
2023-04-10T08:32:09.514Z,9.38
2023-04-10T08:34:37.985Z,9.42
2023-04-10T08:37:09.723Z,9.49
2023-04-10T08:39:39.670Z,9.53
2023-04-10T08:42:08.491Z,9.57
2023-04-10T08:44:38.262Z,9.74
2023-04-10T08:47:08.798Z,9.77
2023-04-10T08:49:39.644Z,9.82
2023-04-10T08:52:10.065Z,9.88
2023-04-10T08:54:39.673Z,9.89
2023-04-10T08:57:10.692Z,9.91
2023-04-10T08:59:40.206Z,9.94
2023-04-10T09:02:08.766Z,9.97
2023-04-10T09:04:37.787Z,10.09
2023-04-10T09:07:07.710Z,10.11
2023-04-10T09:09:36.603Z,10.21
2023-04-10T09:12:07.098Z,10.22
2023-04-10T09:14:37.465Z,10.15
2023-04-10T09:17:24.608Z,10.32
2023-04-10T09:19:55.835Z,10.25
2023-04-10T09:22:35.042Z,10.31
2023-04-10T09:25:05.082Z,10.33
2023-04-10T09:27:35.756Z,10.39
2023-04-10T09:30:05.813Z,10.42
2023-04-10T09:32:42.982Z,10.46
2023-04-10T09:35:14.813Z,10.48
2023-04-10T09:37:47.063Z,10.56
2023-04-10T09:40:23.193Z,10.61
2023-04-10T09:42:52.887Z,10.72
2023-04-10T09:45:22.874Z,10.80
2023-04-10T09:48:07.875Z,10.75
2023-04-10T09:50:40.468Z,10.76
2023-04-10T09:53:12.621Z,10.70
2023-04-10T09:55:43.042Z,10.85
2023-04-10T09:58:12.546Z,10.90
2023-04-10T10:00:49.921Z,11.04
2023-04-10T10:03:21.580Z,11.06
2023-04-10T10:05:51.815Z,11.27
2023-04-10T10:08:21.748Z,11.27
2023-04-10T10:10:53.789Z,11.30
2023-04-10T10:13:33.127Z,11.35
2023-04-10T10:16:13.400Z,11.37
2023-04-10T10:18:58.068Z,11.48
2023-04-10T10:21:28.282Z,11.43
2023-04-10T10:23:59.857Z,11.48
2023-04-10T10:26:30.861Z,11.47
2023-04-10T10:29:03.491Z,11.45
2023-04-10T10:31:34.402Z,11.60
2023-04-10T10:34:08.638Z,11.71
2023-04-10T10:36:38.394Z,11.80
2023-04-10T10:39:37.825Z,11.76
2023-04-10T10:42:14.905Z,11.85
2023-04-10T10:44:47.478Z,11.87
2023-04-10T10:47:24.601Z,12.03
2023-04-10T10:49:55.193Z,12.02
2023-04-10T10:52:53.528Z,12.08
2023-04-10T10:55:24.414Z,12.17
2023-04-10T10:57:53.482Z,12.21
2023-04-10T11:00:26.904Z,12.21
2023-04-10T11:03:08.061Z,12.33
2023-04-10T11:05:59.908Z,12.36
2023-04-10T11:08:35.857Z,12.33
2023-04-10T11:11:09.666Z,12.38
2023-04-10T11:13:40.639Z,12.40
2023-04-10T11:16:11.443Z,12.47
2023-04-10T11:19:02.751Z,12.47
2023-04-10T11:22:15.992Z,12.60
2023-04-10T11:24:58.989Z,12.62
2023-04-10T11:27:42.151Z,12.68
2023-04-10T11:30:28.301Z,12.73
2023-04-10T11:32:57.504Z,12.82
2023-04-10T11:35:27.696Z,12.81
2023-04-10T11:38:10.161Z,12.85
2023-04-10T11:40:54.768Z,13.01
2023-04-10T11:43:23.211Z,13.07
2023-04-10T11:46:00.238Z,13.15
2023-04-10T11:48:29.878Z,13.27
2023-04-10T11:51:00.302Z,13.27
2023-04-10T11:53:30.380Z,13.32
2023-04-10T11:55:59.025Z,13.32
2023-04-10T11:58:30.713Z,13.43
2023-04-10T12:01:00.006Z,13.43
2023-04-10T12:03:42.822Z,13.57
2023-04-10T12:06:13.602Z,13.57
2023-04-10T12:08:46.209Z,13.61
2023-04-10T12:11:16.413Z,13.61
2023-04-10T12:13:46.777Z,13.68
2023-04-10T12:16:15.750Z,13.78
2023-04-10T12:18:48.015Z,13.88
2023-04-10T12:21:18.126Z,13.94
2023-04-10T12:23:46.704Z,13.96
2023-04-10T12:26:17.630Z,13.97
2023-04-10T12:28:55.518Z,13.98
2023-04-10T12:31:37.234Z,13.96
2023-04-10T12:34:08.547Z,13.85
2023-04-10T12:36:38.911Z,13.95
2023-04-10T12:39:22.951Z,13.89
2023-04-10T12:41:52.371Z,13.88
2023-04-10T12:44:23.505Z,13.98
2023-04-10T12:47:02.001Z,13.95
2023-04-10T12:49:30.484Z,13.99
2023-04-10T12:51:59.092Z,14.05
2023-04-10T12:54:28.513Z,14.01
2023-04-10T12:56:59.240Z,13.92
2023-04-10T12:59:29.307Z,13.95
2023-04-10T13:01:57.899Z,13.90
2023-04-10T13:04:27.550Z,13.91
2023-04-10T13:06:56.741Z,13.87
2023-04-10T13:09:25.143Z,13.91
2023-04-10T13:11:53.762Z,13.96
2023-04-10T13:14:23.011Z,13.98
2023-04-10T13:16:51.384Z,13.98
2023-04-10T13:19:20.477Z,14.14
2023-04-10T13:21:50.945Z,14.18
2023-04-10T13:24:19.625Z,14.19
2023-04-10T13:26:48.584Z,14.25
2023-04-10T13:29:17.273Z,14.23
2023-04-10T13:35:04.252Z,14.32
2023-04-10T13:37:59.002Z,14.44
2023-04-10T13:40:28.157Z,14.51
2023-04-10T13:42:57.401Z,14.46
2023-04-10T13:45:26.181Z,14.40
2023-04-10T13:47:55.013Z,14.49
2023-04-10T13:50:25.900Z,14.56
2023-04-10T13:52:55.612Z,14.70
2023-04-10T13:55:24.361Z,14.67
2023-04-10T13:57:52.989Z,14.77
2023-04-10T14:00:22.505Z,14.73
2023-04-10T14:02:51.836Z,14.89
2023-04-10T14:05:20.885Z,15.01
2023-04-10T14:07:52.237Z,15.07
2023-04-10T14:10:21.214Z,14.98
2023-04-10T14:12:49.812Z,14.89
2023-04-10T14:15:18.814Z,14.74
2023-04-10T14:17:47.566Z,14.58
2023-04-10T14:20:16.074Z,14.56
2023-04-10T14:22:47.660Z,14.59
2023-04-10T14:25:16.446Z,14.53
2023-04-10T14:27:45.913Z,14.42
2023-04-10T14:30:14.976Z,14.37
2023-04-10T14:32:44.202Z,14.28
2023-04-10T14:35:13.617Z,14.14
2023-04-10T14:37:42.415Z,14.12
2023-04-10T14:40:11.636Z,14.06
2023-04-10T14:42:40.186Z,14.17
2023-04-10T14:45:09.788Z,14.45
2023-04-10T14:47:38.629Z,14.52
2023-04-10T14:50:08.122Z,14.51
2023-04-10T14:52:36.866Z,14.39
2023-04-10T14:55:06.179Z,14.31
2023-04-10T14:57:34.852Z,14.25
2023-04-10T15:00:04.718Z,14.13
2023-04-10T15:02:33.211Z,14.12
2023-04-10T15:05:01.832Z,14.07
2023-04-10T15:07:30.754Z,13.96
2023-04-10T15:09:59.918Z,13.95
2023-04-10T15:12:28.639Z,14.02
2023-04-10T15:14:57.438Z,13.95
2023-04-10T15:17:25.837Z,14.03
2023-04-10T15:19:54.454Z,14.03
2023-04-10T15:22:23.062Z,13.99
2023-04-10T15:24:51.618Z,14.02
2023-04-10T15:27:21.478Z,14.01
2023-04-10T15:29:50.123Z,13.90
2023-04-10T15:32:18.590Z,13.92
2023-04-10T15:34:47.292Z,13.85
2023-04-10T15:37:15.887Z,13.73
2023-04-10T15:39:44.352Z,13.73
2023-04-10T15:42:13.754Z,13.68
2023-04-10T15:44:42.228Z,13.65
2023-04-10T15:47:10.738Z,13.59
2023-04-10T15:49:39.143Z,13.59
2023-04-10T15:52:07.489Z,13.59
2023-04-10T15:54:36.151Z,13.53
2023-04-10T15:57:05.044Z,13.47
2023-04-10T15:59:34.274Z,13.42
2023-04-10T16:02:29.256Z,13.46
2023-04-10T16:04:58.301Z,13.41
2023-04-10T16:07:26.850Z,13.39
2023-04-10T16:09:56.975Z,13.32
2023-04-10T16:12:25.732Z,13.25
2023-04-10T16:14:54.120Z,13.22
2023-04-10T16:17:22.505Z,13.20
2023-04-10T16:19:51.212Z,13.16
2023-04-10T16:22:19.823Z,13.05
2023-04-10T16:24:48.573Z,12.98
2023-04-10T16:27:18.357Z,12.94
2023-04-10T16:29:46.837Z,12.88
2023-04-10T16:32:15.360Z,12.83
2023-04-10T16:34:43.809Z,12.78
2023-04-10T16:37:33.823Z,12.68
2023-04-10T16:40:02.576Z,12.63
2023-04-10T16:42:31.460Z,12.56
2023-04-10T16:45:03.238Z,12.46
2023-04-10T16:47:35.980Z,12.39
2023-04-10T16:50:09.071Z,12.29
2023-04-10T16:52:37.781Z,12.18
2023-04-10T16:55:07.493Z,12.11
2023-04-10T16:57:36.169Z,11.98
2023-04-10T17:00:05.444Z,11.89
2023-04-10T17:02:34.215Z,11.76
2023-04-10T17:05:02.862Z,11.69
2023-04-10T17:07:31.737Z,11.56
2023-04-10T17:10:00.485Z,11.41
2023-04-10T17:12:29.345Z,11.30
2023-04-10T17:14:58.020Z,11.17
2023-04-10T17:17:26.828Z,11.06
2023-04-10T17:19:55.996Z,10.92
2023-04-10T17:22:25.086Z,10.81
2023-04-10T17:24:53.874Z,10.67
2023-04-10T17:27:23.181Z,10.57
2023-04-10T17:29:52.057Z,10.47
2023-04-10T17:32:20.774Z,10.35
2023-04-10T17:34:49.439Z,10.22
2023-04-10T17:37:20.001Z,10.11
2023-04-10T17:39:52.023Z,10.02
2023-04-10T17:42:25.015Z,9.91
2023-04-10T17:44:53.610Z,9.81
2023-04-10T17:47:22.377Z,9.72
2023-04-10T17:49:51.242Z,9.63
2023-04-10T17:52:19.882Z,9.58
2023-04-10T17:54:48.237Z,9.52
2023-04-10T17:57:17.033Z,9.51
2023-04-10T17:59:46.038Z,9.45
2023-04-10T18:02:14.543Z,9.44
2023-04-10T18:04:43.385Z,9.50
2023-04-10T18:07:12.281Z,9.49
2023-04-10T18:09:41.172Z,9.42
2023-04-10T18:12:11.089Z,9.32
2023-04-10T18:14:40.013Z,9.22
2023-04-10T18:17:08.909Z,9.09
2023-04-10T18:19:37.554Z,9.00
2023-04-10T18:22:06.466Z,8.90
2023-04-10T18:24:35.344Z,8.86
2023-04-10T18:27:04.545Z,8.82
2023-04-10T18:29:33.545Z,8.77
2023-04-10T18:32:02.046Z,8.72
2023-04-10T18:34:33.254Z,8.64
2023-04-10T18:37:01.964Z,8.55
2023-04-10T18:39:30.926Z,8.50
2023-04-10T18:42:04.221Z,8.49
2023-04-10T18:44:35.795Z,8.45
2023-04-10T18:47:07.876Z,8.43
2023-04-10T18:49:36.849Z,8.43
2023-04-10T18:52:08.899Z,8.42
2023-04-10T18:54:38.617Z,8.44
2023-04-10T18:57:07.906Z,8.45
2023-04-10T18:59:37.741Z,8.46
2023-04-10T19:02:09.256Z,8.53
2023-04-10T19:04:38.165Z,8.58
2023-04-10T19:07:09.861Z,8.60
2023-04-10T19:09:48.040Z,8.57
2023-04-10T19:12:16.632Z,8.61
2023-04-10T19:14:45.203Z,8.63
2023-04-10T19:17:14.500Z,8.63
2023-04-10T19:19:43.725Z,8.64
2023-04-10T19:22:13.752Z,8.63
2023-04-10T19:24:42.393Z,8.58
2023-04-10T19:27:11.109Z,8.64
2023-04-10T19:29:39.984Z,8.71
2023-04-10T19:32:10.042Z,8.67
2023-04-10T19:34:42.532Z,8.79
2023-04-10T19:37:11.456Z,8.86
2023-04-10T19:39:40.347Z,8.99
2023-04-10T19:42:08.939Z,9.09
2023-04-10T19:44:37.419Z,9.18
2023-04-10T19:47:06.310Z,9.20
2023-04-10T19:49:37.660Z,9.19
2023-04-10T19:52:06.539Z,9.20
2023-04-10T19:54:35.129Z,9.15
2023-04-10T19:57:03.924Z,9.07
2023-04-10T19:59:32.589Z,9.01
2023-04-10T20:02:01.472Z,8.90
2023-04-10T20:04:30.216Z,8.89
2023-04-10T20:06:59.574Z,8.79
2023-04-10T20:09:28.271Z,8.77
2023-04-10T20:11:57.460Z,8.70
2023-04-10T20:14:27.263Z,8.61
2023-04-10T20:16:55.854Z,8.59
2023-04-10T20:19:24.683Z,8.53
2023-04-10T20:21:53.427Z,8.50
2023-04-10T20:24:22.215Z,8.42
2023-04-10T20:26:51.042Z,8.37
2023-04-10T20:29:19.491Z,8.27
2023-04-10T20:31:48.302Z,8.24
2023-04-10T20:34:16.966Z,8.21
2023-04-10T20:36:45.644Z,8.16
2023-04-10T20:39:14.222Z,8.14
2023-04-10T20:41:43.120Z,8.09
2023-04-10T20:44:12.020Z,8.06
2023-04-10T20:46:41.001Z,8.09
2023-04-10T20:49:12.794Z,8.10
2023-04-10T20:51:41.646Z,8.07
2023-04-10T20:54:10.430Z,8.04
2023-04-10T20:56:43.515Z,7.99
2023-04-10T20:59:12.433Z,7.90
2023-04-10T21:01:41.412Z,7.80
2023-04-10T21:04:10.009Z,7.75
2023-04-10T21:06:39.101Z,7.71
2023-04-10T21:09:07.597Z,7.67
2023-04-10T21:11:36.357Z,7.64
2023-04-10T21:14:05.255Z,7.59
2023-04-10T21:16:35.466Z,7.58
2023-04-10T21:19:04.269Z,7.56
2023-04-10T21:21:33.676Z,7.51
2023-04-10T21:24:02.471Z,7.45
2023-04-10T21:26:31.355Z,7.38
2023-04-10T21:29:00.409Z,7.33
2023-04-10T21:31:29.366Z,7.29
2023-04-10T21:34:13.423Z,7.27
2023-04-10T21:36:42.315Z,7.25
2023-04-10T21:39:11.277Z,7.22
2023-04-10T21:41:40.257Z,7.15
2023-04-10T21:44:09.061Z,7.17
2023-04-10T21:46:38.205Z,7.11
2023-04-10T21:49:07.422Z,7.06
2023-04-10T21:51:36.447Z,7.02
2023-04-10T21:54:04.926Z,7.01
2023-04-10T21:56:35.863Z,7.01
2023-04-10T21:59:04.843Z,7.02
2023-04-10T22:01:34.573Z,7.06
2023-04-10T22:04:03.815Z,7.08
2023-04-10T22:06:33.053Z,7.11
2023-04-10T22:09:01.525Z,7.09
2023-04-10T22:11:30.246Z,7.08
2023-04-10T22:17:35.735Z,7.05
2023-04-10T22:20:04.800Z,7.01
2023-04-10T22:22:33.185Z,7.01
2023-04-10T22:25:01.670Z,6.95
2023-04-10T22:27:30.270Z,6.95
2023-04-10T22:32:30.539Z,6.87
2023-04-10T22:35:00.323Z,6.88
2023-04-10T22:37:29.064Z,6.87
2023-04-10T22:39:57.649Z,6.83
2023-04-10T22:42:27.648Z,6.78
2023-04-10T22:44:57.118Z,6.76
2023-04-10T22:47:27.487Z,6.74
2023-04-10T22:49:56.070Z,6.71
2023-04-10T22:52:24.748Z,6.66
2023-04-10T22:54:53.535Z,6.69
2023-04-10T22:57:22.042Z,6.67
2023-04-10T22:59:50.721Z,6.66
2023-04-10T23:02:19.342Z,6.65
2023-04-10T23:04:50.057Z,6.59
2023-04-10T23:07:19.573Z,6.53
2023-04-10T23:09:48.265Z,6.50
2023-04-10T23:12:16.910Z,6.49
2023-04-10T23:14:45.481Z,6.49
2023-04-10T23:17:14.106Z,6.47
2023-04-10T23:19:42.763Z,6.47
2023-04-10T23:22:12.871Z,6.48
2023-04-10T23:24:41.377Z,6.46
2023-04-10T23:27:09.945Z,6.47
2023-04-10T23:29:38.531Z,6.42
2023-04-10T23:32:08.375Z,6.40
2023-04-10T23:34:37.236Z,6.37
2023-04-10T23:37:06.924Z,6.35
2023-04-10T23:39:35.747Z,6.31
2023-04-10T23:42:05.041Z,6.26
2023-04-10T23:44:33.832Z,6.26
2023-04-10T23:47:02.758Z,6.26
2023-04-10T23:49:31.874Z,6.27
2023-04-10T23:52:00.953Z,6.28
2023-04-10T23:54:30.341Z,6.32
2023-04-10T23:56:59.771Z,6.33
2023-04-10T23:59:28.489Z,6.30
